sensor_id;sensor_type;location;lat;lon;timestamp;P1;durP1;ratioP1;P2;durP2;ratioP2
56039;SDS011;43937;41.366;2.072;2023-04-25T00:00:25;13.93;;;4.45;;
56039;SDS011;43937;41.366;2.072;2023-04-25T00:02:50;8.20;;;3.55;;
56039;SDS011;43937;41.366;2.072;2023-04-25T00:05:16;9.20;;;3.33;;
56039;SDS011;43937;41.366;2.072;2023-04-25T00:07:42;4.25;;;2.70;;
56039;SDS011;43937;41.366;2.072;2023-04-25T00:10:08;7.45;;;2.65;;
56039;SDS011;43937;41.366;2.072;2023-04-25T00:12:34;5.43;;;2.20;;
56039;SDS011;43937;41.366;2.072;2023-04-25T00:15:01;4.30;;;3.30;;
56039;SDS011;43937;41.366;2.072;2023-04-25T00:17:26;7.53;;;3.63;;
56039;SDS011;43937;41.366;2.072;2023-04-25T00:19:52;10.77;;;4.18;;
56039;SDS011;43937;41.366;2.072;2023-04-25T00:22:17;4.65;;;3.28;;
56039;SDS011;43937;41.366;2.072;2023-04-25T00:24:43;7.63;;;3.42;;
56039;SDS011;43937;41.366;2.072;2023-04-25T00:27:08;8.02;;;3.17;;
56039;SDS011;43937;41.366;2.072;2023-04-25T00:29:34;4.65;;;3.00;;
56039;SDS011;43937;41.366;2.072;2023-04-25T00:31:59;5.20;;;3.13;;
56039;SDS011;43937;41.366;2.072;2023-04-25T00:34:25;10.85;;;4.05;;
56039;SDS011;43937;41.366;2.072;2023-04-25T00:36:50;8.73;;;3.85;;
56039;SDS011;43937;41.366;2.072;2023-04-25T00:39:16;8.50;;;3.90;;
56039;SDS011;43937;41.366;2.072;2023-04-25T00:41:41;9.35;;;4.75;;
56039;SDS011;43937;41.366;2.072;2023-04-25T00:44:08;6.50;;;4.20;;
56039;SDS011;43937;41.366;2.072;2023-04-25T00:46:36;7.13;;;3.75;;
56039;SDS011;43937;41.366;2.072;2023-04-25T00:49:02;6.80;;;3.95;;
56039;SDS011;43937;41.366;2.072;2023-04-25T00:51:27;17.38;;;4.93;;
56039;SDS011;43937;41.366;2.072;2023-04-25T00:53:53;10.10;;;3.78;;
56039;SDS011;43937;41.366;2.072;2023-04-25T00:56:19;6.53;;;4.07;;
56039;SDS011;43937;41.366;2.072;2023-04-25T00:58:46;5.90;;;3.65;;
56039;SDS011;43937;41.366;2.072;2023-04-25T01:01:12;5.72;;;3.83;;
56039;SDS011;43937;41.366;2.072;2023-04-25T01:03:39;7.43;;;3.53;;
56039;SDS011;43937;41.366;2.072;2023-04-25T01:06:09;9.50;;;4.72;;
56039;SDS011;43937;41.366;2.072;2023-04-25T01:10:05;6.70;;;3.70;;
56039;SDS011;43937;41.366;2.072;2023-04-25T01:12:31;7.55;;;3.72;;
56039;SDS011;43937;41.366;2.072;2023-04-25T01:14:56;6.75;;;3.28;;
56039;SDS011;43937;41.366;2.072;2023-04-25T01:17:22;4.28;;;3.75;;
56039;SDS011;43937;41.366;2.072;2023-04-25T01:19:47;4.93;;;3.90;;
56039;SDS011;43937;41.366;2.072;2023-04-25T01:22:14;4.00;;;3.15;;
56039;SDS011;43937;41.366;2.072;2023-04-25T01:24:39;7.03;;;4.00;;
56039;SDS011;43937;41.366;2.072;2023-04-25T01:27:05;3.90;;;3.42;;
56039;SDS011;43937;41.366;2.072;2023-04-25T01:29:31;10.02;;;4.00;;
56039;SDS011;43937;41.366;2.072;2023-04-25T01:31:57;6.20;;;3.22;;
56039;SDS011;43937;41.366;2.072;2023-04-25T01:34:24;6.22;;;3.55;;
56039;SDS011;43937;41.366;2.072;2023-04-25T01:36:50;6.85;;;3.55;;
56039;SDS011;43937;41.366;2.072;2023-04-25T01:39:16;9.55;;;4.13;;
56039;SDS011;43937;41.366;2.072;2023-04-25T01:41:42;10.05;;;5.45;;
56039;SDS011;43937;41.366;2.072;2023-04-25T01:44:08;9.18;;;4.78;;
56039;SDS011;43937;41.366;2.072;2023-04-25T01:46:34;11.60;;;4.40;;
56039;SDS011;43937;41.366;2.072;2023-04-25T01:50:52;14.23;;;4.53;;
56039;SDS011;43937;41.366;2.072;2023-04-25T01:53:17;7.82;;;5.07;;
56039;SDS011;43937;41.366;2.072;2023-04-25T01:58:28;11.57;;;5.60;;
56039;SDS011;43937;41.366;2.072;2023-04-25T02:00:53;15.63;;;5.65;;
56039;SDS011;43937;41.366;2.072;2023-04-25T02:03:19;8.68;;;4.93;;
56039;SDS011;43937;41.366;2.072;2023-04-25T02:05:44;11.82;;;5.03;;
56039;SDS011;43937;41.366;2.072;2023-04-25T02:08:10;6.22;;;4.65;;
56039;SDS011;43937;41.366;2.072;2023-04-25T02:12:11;11.88;;;4.20;;
56039;SDS011;43937;41.366;2.072;2023-04-25T02:16:16;6.35;;;4.22;;
56039;SDS011;43937;41.366;2.072;2023-04-25T02:19:25;15.35;;;5.10;;
56039;SDS011;43937;41.366;2.072;2023-04-25T02:21:50;10.00;;;4.18;;
56039;SDS011;43937;41.366;2.072;2023-04-25T02:24:16;8.38;;;3.60;;
56039;SDS011;43937;41.366;2.072;2023-04-25T02:26:41;6.88;;;3.90;;
56039;SDS011;43937;41.366;2.072;2023-04-25T02:29:07;6.90;;;3.65;;
56039;SDS011;43937;41.366;2.072;2023-04-25T02:31:32;7.53;;;4.57;;
56039;SDS011;43937;41.366;2.072;2023-04-25T02:33:57;8.70;;;4.43;;
56039;SDS011;43937;41.366;2.072;2023-04-25T02:36:23;7.05;;;4.95;;
56039;SDS011;43937;41.366;2.072;2023-04-25T02:38:49;5.95;;;4.22;;
56039;SDS011;43937;41.366;2.072;2023-04-25T02:41:14;9.13;;;5.07;;
56039;SDS011;43937;41.366;2.072;2023-04-25T02:43:39;9.55;;;4.32;;
56039;SDS011;43937;41.366;2.072;2023-04-25T02:46:06;6.82;;;4.35;;
56039;SDS011;43937;41.366;2.072;2023-04-25T02:48:32;7.63;;;4.05;;
56039;SDS011;43937;41.366;2.072;2023-04-25T02:50:58;8.98;;;4.35;;
56039;SDS011;43937;41.366;2.072;2023-04-25T02:53:23;6.10;;;3.30;;
56039;SDS011;43937;41.366;2.072;2023-04-25T02:55:49;7.90;;;4.43;;
56039;SDS011;43937;41.366;2.072;2023-04-25T02:58:14;13.88;;;5.55;;
56039;SDS011;43937;41.366;2.072;2023-04-25T03:00:40;9.23;;;4.90;;
56039;SDS011;43937;41.366;2.072;2023-04-25T03:03:06;10.25;;;4.97;;
56039;SDS011;43937;41.366;2.072;2023-04-25T03:05:31;6.13;;;4.80;;
56039;SDS011;43937;41.366;2.072;2023-04-25T03:07:56;7.63;;;4.75;;
56039;SDS011;43937;41.366;2.072;2023-04-25T03:10:22;7.70;;;4.90;;
56039;SDS011;43937;41.366;2.072;2023-04-25T03:13:47;6.88;;;4.65;;
56039;SDS011;43937;41.366;2.072;2023-04-25T03:16:12;7.07;;;4.45;;
56039;SDS011;43937;41.366;2.072;2023-04-25T03:18:37;6.60;;;4.55;;
56039;SDS011;43937;41.366;2.072;2023-04-25T03:21:03;11.65;;;5.38;;
56039;SDS011;43937;41.366;2.072;2023-04-25T03:23:28;10.95;;;4.78;;
56039;SDS011;43937;41.366;2.072;2023-04-25T03:25:54;9.55;;;5.38;;
56039;SDS011;43937;41.366;2.072;2023-04-25T03:28:20;8.93;;;5.07;;
56039;SDS011;43937;41.366;2.072;2023-04-25T03:30:45;10.02;;;5.90;;
56039;SDS011;43937;41.366;2.072;2023-04-25T03:33:10;6.85;;;5.07;;
56039;SDS011;43937;41.366;2.072;2023-04-25T03:35:36;6.18;;;4.55;;
56039;SDS011;43937;41.366;2.072;2023-04-25T03:38:01;9.38;;;4.85;;
56039;SDS011;43937;41.366;2.072;2023-04-25T03:40:27;11.00;;;5.05;;
56039;SDS011;43937;41.366;2.072;2023-04-25T03:42:52;22.48;;;4.88;;
56039;SDS011;43937;41.366;2.072;2023-04-25T03:45:17;5.30;;;4.38;;
56039;SDS011;43937;41.366;2.072;2023-04-25T03:49:24;8.88;;;4.93;;
56039;SDS011;43937;41.366;2.072;2023-04-25T03:52:39;15.75;;;5.13;;
56039;SDS011;43937;41.366;2.072;2023-04-25T03:55:04;6.13;;;4.30;;
56039;SDS011;43937;41.366;2.072;2023-04-25T03:57:30;6.10;;;4.07;;
56039;SDS011;43937;41.366;2.072;2023-04-25T03:59:55;10.23;;;5.10;;
56039;SDS011;43937;41.366;2.072;2023-04-25T04:02:21;9.95;;;4.72;;
56039;SDS011;43937;41.366;2.072;2023-04-25T04:04:47;4.78;;;3.70;;
56039;SDS011;43937;41.366;2.072;2023-04-25T04:07:12;4.90;;;3.88;;
56039;SDS011;43937;41.366;2.072;2023-04-25T04:09:38;6.05;;;3.58;;
56039;SDS011;43937;41.366;2.072;2023-04-25T04:12:03;6.35;;;4.35;;
56039;SDS011;43937;41.366;2.072;2023-04-25T04:14:29;6.95;;;5.40;;
56039;SDS011;43937;41.366;2.072;2023-04-25T04:16:55;9.82;;;4.85;;
56039;SDS011;43937;41.366;2.072;2023-04-25T04:19:20;5.80;;;4.00;;
56039;SDS011;43937;41.366;2.072;2023-04-25T04:21:45;8.55;;;4.80;;
56039;SDS011;43937;41.366;2.072;2023-04-25T04:24:11;7.82;;;5.28;;
56039;SDS011;43937;41.366;2.072;2023-04-25T04:26:36;9.27;;;5.30;;
56039;SDS011;43937;41.366;2.072;2023-04-25T04:30:16;18.50;;;5.57;;
56039;SDS011;43937;41.366;2.072;2023-04-25T04:32:51;7.95;;;4.32;;
56039;SDS011;43937;41.366;2.072;2023-04-25T04:35:16;15.00;;;5.20;;
56039;SDS011;43937;41.366;2.072;2023-04-25T04:37:42;7.22;;;4.68;;
56039;SDS011;43937;41.366;2.072;2023-04-25T04:40:09;4.18;;;3.28;;
56039;SDS011;43937;41.366;2.072;2023-04-25T04:42:34;7.13;;;4.97;;
56039;SDS011;43937;41.366;2.072;2023-04-25T04:45:01;4.68;;;4.18;;
56039;SDS011;43937;41.366;2.072;2023-04-25T04:49:35;9.68;;;4.88;;
56039;SDS011;43937;41.366;2.072;2023-04-25T04:52:01;16.27;;;5.32;;
56039;SDS011;43937;41.366;2.072;2023-04-25T04:56:13;7.90;;;4.55;;
56039;SDS011;43937;41.366;2.072;2023-04-25T04:58:39;9.95;;;4.80;;
56039;SDS011;43937;41.366;2.072;2023-04-25T05:01:04;6.55;;;5.03;;
56039;SDS011;43937;41.366;2.072;2023-04-25T05:03:30;4.93;;;4.07;;
56039;SDS011;43937;41.366;2.072;2023-04-25T05:05:55;9.60;;;5.35;;
56039;SDS011;43937;41.366;2.072;2023-04-25T05:08:20;6.47;;;4.20;;
56039;SDS011;43937;41.366;2.072;2023-04-25T05:10:46;11.23;;;4.82;;
56039;SDS011;43937;41.366;2.072;2023-04-25T05:13:11;5.85;;;4.30;;
56039;SDS011;43937;41.366;2.072;2023-04-25T05:15:37;6.80;;;4.72;;
56039;SDS011;43937;41.366;2.072;2023-04-25T05:18:02;17.73;;;5.25;;
56039;SDS011;43937;41.366;2.072;2023-04-25T05:20:28;6.53;;;4.25;;
56039;SDS011;43937;41.366;2.072;2023-04-25T05:22:53;12.77;;;5.15;;
56039;SDS011;43937;41.366;2.072;2023-04-25T05:25:19;8.77;;;4.65;;
56039;SDS011;43937;41.366;2.072;2023-04-25T05:27:45;4.55;;;3.65;;
56039;SDS011;43937;41.366;2.072;2023-04-25T05:30:10;8.00;;;5.05;;
56039;SDS011;43937;41.366;2.072;2023-04-25T05:34:15;8.23;;;4.63;;
56039;SDS011;43937;41.366;2.072;2023-04-25T05:36:41;6.40;;;4.47;;
56039;SDS011;43937;41.366;2.072;2023-04-25T05:39:07;23.67;;;5.20;;
56039;SDS011;43937;41.366;2.072;2023-04-25T05:41:33;8.65;;;5.03;;
56039;SDS011;43937;41.366;2.072;2023-04-25T05:43:59;6.20;;;4.65;;
56039;SDS011;43937;41.366;2.072;2023-04-25T05:46:24;10.32;;;5.50;;
56039;SDS011;43937;41.366;2.072;2023-04-25T05:48:50;12.05;;;5.47;;
56039;SDS011;43937;41.366;2.072;2023-04-25T05:51:15;13.00;;;6.38;;
56039;SDS011;43937;41.366;2.072;2023-04-25T05:53:41;9.30;;;6.72;;
56039;SDS011;43937;41.366;2.072;2023-04-25T05:56:06;10.23;;;5.95;;
56039;SDS011;43937;41.366;2.072;2023-04-25T05:58:32;9.90;;;5.78;;
56039;SDS011;43937;41.366;2.072;2023-04-25T06:02:43;14.10;;;6.97;;
56039;SDS011;43937;41.366;2.072;2023-04-25T06:05:08;9.25;;;6.18;;
56039;SDS011;43937;41.366;2.072;2023-04-25T06:08:49;10.95;;;5.47;;
56039;SDS011;43937;41.366;2.072;2023-04-25T06:11:27;9.05;;;5.82;;
56039;SDS011;43937;41.366;2.072;2023-04-25T06:13:53;9.38;;;6.30;;
56039;SDS011;43937;41.366;2.072;2023-04-25T06:16:19;17.40;;;5.95;;
56039;SDS011;43937;41.366;2.072;2023-04-25T06:18:44;14.57;;;6.88;;
56039;SDS011;43937;41.366;2.072;2023-04-25T06:21:10;15.93;;;7.07;;
56039;SDS011;43937;41.366;2.072;2023-04-25T06:23:35;16.42;;;6.38;;
56039;SDS011;43937;41.366;2.072;2023-04-25T06:26:00;14.55;;;5.95;;
56039;SDS011;43937;41.366;2.072;2023-04-25T06:28:26;19.23;;;6.00;;
56039;SDS011;43937;41.366;2.072;2023-04-25T06:30:51;9.55;;;5.38;;
56039;SDS011;43937;41.366;2.072;2023-04-25T06:33:17;8.55;;;5.45;;
56039;SDS011;43937;41.366;2.072;2023-04-25T06:35:42;10.05;;;4.90;;
56039;SDS011;43937;41.366;2.072;2023-04-25T06:38:08;9.20;;;4.80;;
56039;SDS011;43937;41.366;2.072;2023-04-25T06:40:33;8.07;;;5.25;;
56039;SDS011;43937;41.366;2.072;2023-04-25T06:42:59;21.58;;;5.35;;
56039;SDS011;43937;41.366;2.072;2023-04-25T06:46:57;10.98;;;4.47;;
56039;SDS011;43937;41.366;2.072;2023-04-25T06:49:22;7.70;;;4.57;;
56039;SDS011;43937;41.366;2.072;2023-04-25T06:51:48;6.13;;;4.03;;
56039;SDS011;43937;41.366;2.072;2023-04-25T06:54:13;6.15;;;4.55;;
56039;SDS011;43937;41.366;2.072;2023-04-25T06:56:38;5.75;;;4.13;;
56039;SDS011;43937;41.366;2.072;2023-04-25T06:59:04;5.60;;;4.13;;
56039;SDS011;43937;41.366;2.072;2023-04-25T07:01:29;4.43;;;3.33;;
56039;SDS011;43937;41.366;2.072;2023-04-25T07:03:55;11.05;;;3.72;;
56039;SDS011;43937;41.366;2.072;2023-04-25T07:06:20;6.50;;;4.40;;
56039;SDS011;43937;41.366;2.072;2023-04-25T07:10:17;4.32;;;3.92;;
56039;SDS011;43937;41.366;2.072;2023-04-25T07:12:42;15.50;;;5.22;;
56039;SDS011;43937;41.366;2.072;2023-04-25T07:15:08;8.32;;;4.45;;
56039;SDS011;43937;41.366;2.072;2023-04-25T07:17:35;6.78;;;4.22;;
56039;SDS011;43937;41.366;2.072;2023-04-25T07:20:00;10.93;;;4.25;;
56039;SDS011;43937;41.366;2.072;2023-04-25T07:22:25;7.53;;;4.22;;
56039;SDS011;43937;41.366;2.072;2023-04-25T07:26:44;9.30;;;5.35;;
56039;SDS011;43937;41.366;2.072;2023-04-25T07:29:09;21.17;;;5.70;;
56039;SDS011;43937;41.366;2.072;2023-04-25T07:32:33;20.15;;;5.75;;
56039;SDS011;43937;41.366;2.072;2023-04-25T07:34:58;6.82;;;4.47;;
56039;SDS011;43937;41.366;2.072;2023-04-25T07:37:24;10.90;;;5.05;;
56039;SDS011;43937;41.366;2.072;2023-04-25T07:40:15;5.68;;;3.50;;
56039;SDS011;43937;41.366;2.072;2023-04-25T07:42:41;7.18;;;3.97;;
56039;SDS011;43937;41.366;2.072;2023-04-25T07:45:07;5.80;;;4.03;;
56039;SDS011;43937;41.366;2.072;2023-04-25T07:47:34;6.05;;;3.88;;
56039;SDS011;43937;41.366;2.072;2023-04-25T07:51:40;9.27;;;4.00;;
56039;SDS011;43937;41.366;2.072;2023-04-25T07:54:08;26.15;;;4.80;;
56039;SDS011;43937;41.366;2.072;2023-04-25T07:56:34;5.55;;;3.15;;
56039;SDS011;43937;41.366;2.072;2023-04-25T07:59:16;7.22;;;4.47;;
56039;SDS011;43937;41.366;2.072;2023-04-25T08:01:41;4.95;;;4.43;;
56039;SDS011;43937;41.366;2.072;2023-04-25T08:04:07;12.57;;;4.95;;
56039;SDS011;43937;41.366;2.072;2023-04-25T08:06:32;6.38;;;4.13;;
56039;SDS011;43937;41.366;2.072;2023-04-25T08:08:58;8.23;;;4.70;;
56039;SDS011;43937;41.366;2.072;2023-04-25T08:11:23;13.35;;;4.95;;
56039;SDS011;43937;41.366;2.072;2023-04-25T08:13:49;8.38;;;5.00;;
56039;SDS011;43937;41.366;2.072;2023-04-25T08:16:14;7.80;;;5.40;;
56039;SDS011;43937;41.366;2.072;2023-04-25T08:18:40;8.32;;;5.63;;
56039;SDS011;43937;41.366;2.072;2023-04-25T08:21:06;6.80;;;5.65;;
56039;SDS011;43937;41.366;2.072;2023-04-25T08:23:33;15.73;;;6.85;;
56039;SDS011;43937;41.366;2.072;2023-04-25T08:25:59;20.38;;;5.68;;
56039;SDS011;43937;41.366;2.072;2023-04-25T08:28:25;9.55;;;4.95;;
56039;SDS011;43937;41.366;2.072;2023-04-25T08:30:50;12.95;;;6.32;;
56039;SDS011;43937;41.366;2.072;2023-04-25T08:33:16;13.73;;;7.15;;
56039;SDS011;43937;41.366;2.072;2023-04-25T08:35:42;11.95;;;6.88;;
56039;SDS011;43937;41.366;2.072;2023-04-25T08:38:07;8.73;;;5.55;;
56039;SDS011;43937;41.366;2.072;2023-04-25T08:40:35;8.25;;;5.63;;
56039;SDS011;43937;41.366;2.072;2023-04-25T08:43:03;6.32;;;5.60;;
56039;SDS011;43937;41.366;2.072;2023-04-25T08:45:31;10.50;;;5.28;;
56039;SDS011;43937;41.366;2.072;2023-04-25T08:47:57;11.73;;;6.28;;
56039;SDS011;43937;41.366;2.072;2023-04-25T08:50:23;7.97;;;4.97;;
56039;SDS011;43937;41.366;2.072;2023-04-25T08:52:51;16.02;;;8.38;;
56039;SDS011;43937;41.366;2.072;2023-04-25T08:55:18;8.95;;;5.20;;
56039;SDS011;43937;41.366;2.072;2023-04-25T08:57:46;7.10;;;4.60;;
56039;SDS011;43937;41.366;2.072;2023-04-25T09:00:12;8.18;;;3.92;;
56039;SDS011;43937;41.366;2.072;2023-04-25T09:02:39;8.40;;;5.95;;
56039;SDS011;43937;41.366;2.072;2023-04-25T09:06:15;7.93;;;3.78;;
56039;SDS011;43937;41.366;2.072;2023-04-25T09:08:42;10.00;;;5.25;;
56039;SDS011;43937;41.366;2.072;2023-04-25T09:11:08;5.53;;;3.92;;
56039;SDS011;43937;41.366;2.072;2023-04-25T09:15:07;16.05;;;9.40;;
56039;SDS011;43937;41.366;2.072;2023-04-25T09:17:35;16.40;;;5.43;;
56039;SDS011;43937;41.366;2.072;2023-04-25T09:21:34;10.23;;;4.25;;
56039;SDS011;43937;41.366;2.072;2023-04-25T09:24:48;8.30;;;5.43;;
56039;SDS011;43937;41.366;2.072;2023-04-25T09:27:20;14.52;;;7.80;;
56039;SDS011;43937;41.366;2.072;2023-04-25T09:29:50;9.88;;;4.07;;
56039;SDS011;43937;41.366;2.072;2023-04-25T09:32:23;5.57;;;4.00;;
56039;SDS011;43937;41.366;2.072;2023-04-25T09:34:50;5.60;;;3.97;;
56039;SDS011;43937;41.366;2.072;2023-04-25T09:37:35;6.10;;;3.95;;
56039;SDS011;43937;41.366;2.072;2023-04-25T09:40:03;5.53;;;3.60;;
56039;SDS011;43937;41.366;2.072;2023-04-25T09:42:31;7.60;;;4.40;;
56039;SDS011;43937;41.366;2.072;2023-04-25T09:44:59;4.65;;;3.25;;
56039;SDS011;43937;41.366;2.072;2023-04-25T09:47:55;10.52;;;3.70;;
56039;SDS011;43937;41.366;2.072;2023-04-25T09:50:22;6.22;;;3.78;;
56039;SDS011;43937;41.366;2.072;2023-04-25T09:53:05;5.85;;;4.03;;
56039;SDS011;43937;41.366;2.072;2023-04-25T09:55:32;4.90;;;2.70;;
56039;SDS011;43937;41.366;2.072;2023-04-25T09:58:00;4.75;;;3.13;;
56039;SDS011;43937;41.366;2.072;2023-04-25T10:00:34;3.97;;;2.53;;
56039;SDS011;43937;41.366;2.072;2023-04-25T10:03:45;4.10;;;2.13;;
56039;SDS011;43937;41.366;2.072;2023-04-25T10:06:16;4.18;;;2.33;;
56039;SDS011;43937;41.366;2.072;2023-04-25T10:08:44;5.88;;;3.13;;
56039;SDS011;43937;41.366;2.072;2023-04-25T10:11:15;3.57;;;2.10;;
56039;SDS011;43937;41.366;2.072;2023-04-25T10:15:05;3.65;;;2.40;;
56039;SDS011;43937;41.366;2.072;2023-04-25T10:17:33;18.50;;;2.72;;
56039;SDS011;43937;41.366;2.072;2023-04-25T10:20:03;6.55;;;3.00;;
56039;SDS011;43937;41.366;2.072;2023-04-25T10:25:14;4.78;;;2.13;;
56039;SDS011;43937;41.366;2.072;2023-04-25T10:27:40;3.20;;;2.67;;
56039;SDS011;43937;41.366;2.072;2023-04-25T10:30:15;3.85;;;2.95;;
56039;SDS011;43937;41.366;2.072;2023-04-25T10:32:41;13.88;;;3.35;;
56039;SDS011;43937;41.366;2.072;2023-04-25T10:38:34;5.65;;;2.60;;
56039;SDS011;43937;41.366;2.072;2023-04-25T10:41:53;3.65;;;2.47;;
56039;SDS011;43937;41.366;2.072;2023-04-25T10:44:21;3.92;;;2.22;;
56039;SDS011;43937;41.366;2.072;2023-04-25T10:46:47;7.82;;;2.20;;
56039;SDS011;43937;41.366;2.072;2023-04-25T10:51:08;2.45;;;1.75;;
56039;SDS011;43937;41.366;2.072;2023-04-25T10:53:40;6.95;;;2.33;;
56039;SDS011;43937;41.366;2.072;2023-04-25T10:56:48;4.25;;;2.13;;
56039;SDS011;43937;41.366;2.072;2023-04-25T11:01:06;10.85;;;2.45;;
56039;SDS011;43937;41.366;2.072;2023-04-25T11:03:31;3.05;;;1.85;;
56039;SDS011;43937;41.366;2.072;2023-04-25T11:08:11;6.45;;;2.15;;
56039;SDS011;43937;41.366;2.072;2023-04-25T11:12:37;3.92;;;1.65;;
56039;SDS011;43937;41.366;2.072;2023-04-25T11:16:17;3.03;;;1.90;;
56039;SDS011;43937;41.366;2.072;2023-04-25T11:18:43;8.70;;;2.38;;
56039;SDS011;43937;41.366;2.072;2023-04-25T11:21:09;2.58;;;1.40;;
56039;SDS011;43937;41.366;2.072;2023-04-25T11:23:35;5.57;;;1.85;;
56039;SDS011;43937;41.366;2.072;2023-04-25T11:26:38;1.92;;;1.40;;
56039;SDS011;43937;41.366;2.072;2023-04-25T11:29:07;3.38;;;1.50;;
56039;SDS011;43937;41.366;2.072;2023-04-25T11:31:32;5.35;;;1.88;;
56039;SDS011;43937;41.366;2.072;2023-04-25T11:33:57;4.47;;;1.67;;
56039;SDS011;43937;41.366;2.072;2023-04-25T11:36:23;2.53;;;1.27;;
56039;SDS011;43937;41.366;2.072;2023-04-25T11:38:51;2.63;;;1.30;;
56039;SDS011;43937;41.366;2.072;2023-04-25T11:41:17;1.83;;;1.40;;
56039;SDS011;43937;41.366;2.072;2023-04-25T11:43:43;4.05;;;1.90;;
56039;SDS011;43937;41.366;2.072;2023-04-25T11:46:09;4.70;;;1.77;;
56039;SDS011;43937;41.366;2.072;2023-04-25T11:48:38;2.20;;;1.33;;
56039;SDS011;43937;41.366;2.072;2023-04-25T11:51:05;2.65;;;1.30;;
56039;SDS011;43937;41.366;2.072;2023-04-25T11:53:30;3.13;;;1.40;;
56039;SDS011;43937;41.366;2.072;2023-04-25T11:55:56;3.30;;;1.70;;
56039;SDS011;43937;41.366;2.072;2023-04-25T11:58:22;1.77;;;1.25;;
56039;SDS011;43937;41.366;2.072;2023-04-25T12:00:47;6.65;;;1.50;;
56039;SDS011;43937;41.366;2.072;2023-04-25T12:03:13;7.40;;;1.58;;
56039;SDS011;43937;41.366;2.072;2023-04-25T12:05:41;2.72;;;1.33;;
56039;SDS011;43937;41.366;2.072;2023-04-25T12:08:18;1.30;;;1.10;;
56039;SDS011;43937;41.366;2.072;2023-04-25T12:10:45;5.63;;;1.45;;
56039;SDS011;43937;41.366;2.072;2023-04-25T12:13:20;1.45;;;1.02;;
56039;SDS011;43937;41.366;2.072;2023-04-25T12:15:47;2.80;;;1.88;;
56039;SDS011;43937;41.366;2.072;2023-04-25T12:18:12;6.82;;;1.92;;
56039;SDS011;43937;41.366;2.072;2023-04-25T12:20:38;1.65;;;1.35;;
56039;SDS011;43937;41.366;2.072;2023-04-25T12:23:07;6.00;;;2.25;;
56039;SDS011;43937;41.366;2.072;2023-04-25T12:28:13;2.58;;;1.55;;
56039;SDS011;43937;41.366;2.072;2023-04-25T12:30:58;4.10;;;2.05;;
56039;SDS011;43937;41.366;2.072;2023-04-25T12:33:48;8.80;;;2.05;;
56039;SDS011;43937;41.366;2.072;2023-04-25T12:36:14;4.65;;;2.20;;
56039;SDS011;43937;41.366;2.072;2023-04-25T12:38:41;13.70;;;2.03;;
56039;SDS011;43937;41.366;2.072;2023-04-25T12:41:07;6.55;;;2.22;;
56039;SDS011;43937;41.366;2.072;2023-04-25T12:43:33;2.63;;;2.15;;
56039;SDS011;43937;41.366;2.072;2023-04-25T12:45:59;6.80;;;2.20;;
56039;SDS011;43937;41.366;2.072;2023-04-25T12:48:25;3.10;;;2.10;;
56039;SDS011;43937;41.366;2.072;2023-04-25T12:50:51;3.72;;;2.38;;
56039;SDS011;43937;41.366;2.072;2023-04-25T12:53:17;3.85;;;2.60;;
56039;SDS011;43937;41.366;2.072;2023-04-25T12:55:44;3.35;;;2.65;;
56039;SDS011;43937;41.366;2.072;2023-04-25T12:58:13;4.65;;;2.15;;
56039;SDS011;43937;41.366;2.072;2023-04-25T13:00:39;2.83;;;2.53;;
56039;SDS011;43937;41.366;2.072;2023-04-25T13:03:04;2.72;;;1.98;;
56039;SDS011;43937;41.366;2.072;2023-04-25T13:06:55;5.10;;;2.92;;
56039;SDS011;43937;41.366;2.072;2023-04-25T13:09:21;5.28;;;2.38;;
56039;SDS011;43937;41.366;2.072;2023-04-25T13:11:46;3.35;;;2.38;;
56039;SDS011;43937;41.366;2.072;2023-04-25T13:15:07;2.08;;;1.83;;
56039;SDS011;43937;41.366;2.072;2023-04-25T13:17:34;4.72;;;2.33;;
56039;SDS011;43937;41.366;2.072;2023-04-25T13:19:59;8.30;;;2.65;;
56039;SDS011;43937;41.366;2.072;2023-04-25T13:22:25;3.20;;;2.28;;
56039;SDS011;43937;41.366;2.072;2023-04-25T13:24:50;7.55;;;2.60;;
56039;SDS011;43937;41.366;2.072;2023-04-25T13:27:16;5.38;;;2.60;;
56039;SDS011;43937;41.366;2.072;2023-04-25T13:30:54;2.97;;;2.40;;
56039;SDS011;43937;41.366;2.072;2023-04-25T13:33:20;3.42;;;2.35;;
56039;SDS011;43937;41.366;2.072;2023-04-25T13:35:46;3.05;;;1.95;;
56039;SDS011;43937;41.366;2.072;2023-04-25T13:38:18;2.55;;;2.28;;
56039;SDS011;43937;41.366;2.072;2023-04-25T13:40:45;2.05;;;1.88;;
56039;SDS011;43937;41.366;2.072;2023-04-25T13:43:10;3.97;;;2.60;;
56039;SDS011;43937;41.366;2.072;2023-04-25T13:45:36;5.85;;;2.25;;
56039;SDS011;43937;41.366;2.072;2023-04-25T13:48:01;2.42;;;1.88;;
56039;SDS011;43937;41.366;2.072;2023-04-25T13:51:08;12.98;;;2.08;;
56039;SDS011;43937;41.366;2.072;2023-04-25T13:53:33;4.18;;;2.38;;
56039;SDS011;43937;41.366;2.072;2023-04-25T13:55:59;4.43;;;2.55;;
56039;SDS011;43937;41.366;2.072;2023-04-25T13:58:58;2.78;;;2.30;;
56039;SDS011;43937;41.366;2.072;2023-04-25T14:01:24;6.13;;;4.07;;
56039;SDS011;43937;41.366;2.072;2023-04-25T14:03:49;2.75;;;1.88;;
56039;SDS011;43937;41.366;2.072;2023-04-25T14:06:15;2.67;;;1.73;;
56039;SDS011;43937;41.366;2.072;2023-04-25T14:08:47;4.63;;;2.28;;
56039;SDS011;43937;41.366;2.072;2023-04-25T14:11:13;3.10;;;1.77;;
56039;SDS011;43937;41.366;2.072;2023-04-25T14:13:38;3.47;;;2.10;;
56039;SDS011;43937;41.366;2.072;2023-04-25T14:17:10;4.18;;;2.40;;
56039;SDS011;43937;41.366;2.072;2023-04-25T14:19:37;3.00;;;1.77;;
56039;SDS011;43937;41.366;2.072;2023-04-25T14:22:03;3.00;;;2.20;;
56039;SDS011;43937;41.366;2.072;2023-04-25T14:24:29;2.92;;;2.17;;
56039;SDS011;43937;41.366;2.072;2023-04-25T14:26:54;3.25;;;2.50;;
56039;SDS011;43937;41.366;2.072;2023-04-25T14:29:20;6.78;;;2.72;;
56039;SDS011;43937;41.366;2.072;2023-04-25T14:31:46;3.03;;;2.17;;
56039;SDS011;43937;41.366;2.072;2023-04-25T14:34:12;6.13;;;2.53;;
56039;SDS011;43937;41.366;2.072;2023-04-25T14:36:37;4.18;;;2.58;;
56039;SDS011;43937;41.366;2.072;2023-04-25T14:39:03;3.08;;;2.60;;
56039;SDS011;43937;41.366;2.072;2023-04-25T14:41:30;3.67;;;2.67;;
56039;SDS011;43937;41.366;2.072;2023-04-25T14:43:55;5.18;;;2.47;;
56039;SDS011;43937;41.366;2.072;2023-04-25T14:46:21;6.45;;;2.90;;
56039;SDS011;43937;41.366;2.072;2023-04-25T14:48:48;6.15;;;2.72;;
56039;SDS011;43937;41.366;2.072;2023-04-25T14:51:13;2.72;;;2.38;;
56039;SDS011;43937;41.366;2.072;2023-04-25T14:53:39;2.60;;;1.77;;
56039;SDS011;43937;41.366;2.072;2023-04-25T14:56:05;6.57;;;2.88;;
56039;SDS011;43937;41.366;2.072;2023-04-25T14:58:32;7.50;;;1.65;;
56039;SDS011;43937;41.366;2.072;2023-04-25T15:00:58;2.47;;;1.85;;
56039;SDS011;43937;41.366;2.072;2023-04-25T15:03:24;3.20;;;1.90;;
56039;SDS011;43937;41.366;2.072;2023-04-25T15:05:49;2.50;;;1.92;;
56039;SDS011;43937;41.366;2.072;2023-04-25T15:08:15;2.03;;;1.92;;
56039;SDS011;43937;41.366;2.072;2023-04-25T15:10:40;7.35;;;2.53;;
56039;SDS011;43937;41.366;2.072;2023-04-25T15:13:05;5.60;;;2.47;;
56039;SDS011;43937;41.366;2.072;2023-04-25T15:15:31;7.22;;;2.53;;
56039;SDS011;43937;41.366;2.072;2023-04-25T15:17:57;6.22;;;2.53;;
56039;SDS011;43937;41.366;2.072;2023-04-25T15:20:22;5.85;;;2.10;;
56039;SDS011;43937;41.366;2.072;2023-04-25T15:22:48;2.10;;;1.90;;
56039;SDS011;43937;41.366;2.072;2023-04-25T15:25:14;5.00;;;2.28;;
56039;SDS011;43937;41.366;2.072;2023-04-25T15:27:43;4.60;;;2.10;;
56039;SDS011;43937;41.366;2.072;2023-04-25T15:30:11;4.32;;;3.15;;
56039;SDS011;43937;41.366;2.072;2023-04-25T15:32:40;4.90;;;2.90;;
56039;SDS011;43937;41.366;2.072;2023-04-25T15:35:06;4.60;;;2.25;;
56039;SDS011;43937;41.366;2.072;2023-04-25T15:37:33;2.70;;;1.98;;
56039;SDS011;43937;41.366;2.072;2023-04-25T15:40:04;3.63;;;2.30;;
56039;SDS011;43937;41.366;2.072;2023-04-25T15:42:40;17.00;;;2.85;;
56039;SDS011;43937;41.366;2.072;2023-04-25T15:45:08;4.10;;;2.38;;